sensor_id;sensor_type;location;lat;lon;timestamp;P1;durP1;ratioP1;P2;durP2;ratioP2
60032;SDS011;45905;50.570;10.428;2022-10-31T00:01:28;15.50;;;5.20;;
60032;SDS011;45905;50.570;10.428;2022-10-31T00:04:01;5.60;;;3.47;;
60032;SDS011;45905;50.570;10.428;2022-10-31T00:06:28;4.50;;;3.20;;
60032;SDS011;45905;50.570;10.428;2022-10-31T00:08:56;4.63;;;3.33;;
60032;SDS011;45905;50.570;10.428;2022-10-31T00:11:26;14.53;;;5.43;;
60032;SDS011;45905;50.570;10.428;2022-10-31T00:13:54;7.73;;;3.37;;
60032;SDS011;45905;50.570;10.428;2022-10-31T00:16:23;5.20;;;2.60;;
60032;SDS011;45905;50.570;10.428;2022-10-31T00:18:52;5.43;;;3.57;;
60032;SDS011;45905;50.570;10.428;2022-10-31T00:21:23;18.63;;;4.47;;
60032;SDS011;45905;50.570;10.428;2022-10-31T00:23:52;11.70;;;3.30;;
60032;SDS011;45905;50.570;10.428;2022-10-31T00:26:20;11.87;;;3.70;;
60032;SDS011;45905;50.570;10.428;2022-10-31T00:28:47;7.27;;;4.20;;
60032;SDS011;45905;50.570;10.428;2022-10-31T00:31:14;8.50;;;3.07;;
60032;SDS011;45905;50.570;10.428;2022-10-31T00:33:42;7.83;;;3.23;;
60032;SDS011;45905;50.570;10.428;2022-10-31T00:36:11;4.40;;;3.40;;
60032;SDS011;45905;50.570;10.428;2022-10-31T00:38:41;6.73;;;3.60;;
60032;SDS011;45905;50.570;10.428;2022-10-31T00:41:10;11.40;;;4.20;;
60032;SDS011;45905;50.570;10.428;2022-10-31T00:43:40;5.10;;;3.33;;
60032;SDS011;45905;50.570;10.428;2022-10-31T00:46:09;2.90;;;2.70;;
60032;SDS011;45905;50.570;10.428;2022-10-31T00:48:37;7.63;;;3.33;;
60032;SDS011;45905;50.570;10.428;2022-10-31T00:51:04;6.67;;;2.80;;
60032;SDS011;45905;50.570;10.428;2022-10-31T00:53:32;2.93;;;2.13;;
60032;SDS011;45905;50.570;10.428;2022-10-31T00:55:59;6.50;;;3.40;;
60032;SDS011;45905;50.570;10.428;2022-10-31T00:58:27;9.90;;;3.27;;
60032;SDS011;45905;50.570;10.428;2022-10-31T01:00:54;3.87;;;2.63;;
60032;SDS011;45905;50.570;10.428;2022-10-31T01:03:22;3.53;;;3.10;;
60032;SDS011;45905;50.570;10.428;2022-10-31T01:05:56;30.50;;;3.90;;
60032;SDS011;45905;50.570;10.428;2022-10-31T01:08:30;6.17;;;2.77;;
60032;SDS011;45905;50.570;10.428;2022-10-31T01:10:59;7.00;;;3.90;;
60032;SDS011;45905;50.570;10.428;2022-10-31T01:13:40;5.50;;;3.80;;
60032;SDS011;45905;50.570;10.428;2022-10-31T01:16:10;7.00;;;3.40;;
60032;SDS011;45905;50.570;10.428;2022-10-31T01:18:40;6.73;;;2.73;;
60032;SDS011;45905;50.570;10.428;2022-10-31T01:21:12;3.40;;;2.80;;
60032;SDS011;45905;50.570;10.428;2022-10-31T01:23:43;10.70;;;3.53;;
60032;SDS011;45905;50.570;10.428;2022-10-31T01:26:13;8.80;;;3.10;;
60032;SDS011;45905;50.570;10.428;2022-10-31T01:31:46;4.43;;;2.83;;
60032;SDS011;45905;50.570;10.428;2022-10-31T01:34:14;10.63;;;2.73;;
60032;SDS011;45905;50.570;10.428;2022-10-31T01:36:44;5.70;;;2.47;;
60032;SDS011;45905;50.570;10.428;2022-10-31T01:39:14;4.87;;;3.10;;
60032;SDS011;45905;50.570;10.428;2022-10-31T01:41:43;6.53;;;2.57;;
60032;SDS011;45905;50.570;10.428;2022-10-31T01:46:50;4.47;;;2.37;;
60032;SDS011;45905;50.570;10.428;2022-10-31T01:52:09;4.40;;;2.23;;
60032;SDS011;45905;50.570;10.428;2022-10-31T01:57:37;2.37;;;1.90;;
60032;SDS011;45905;50.570;10.428;2022-10-31T02:00:08;5.23;;;2.17;;
60032;SDS011;45905;50.570;10.428;2022-10-31T02:02:41;8.80;;;3.17;;
60032;SDS011;45905;50.570;10.428;2022-10-31T02:05:19;7.43;;;3.20;;
60032;SDS011;45905;50.570;10.428;2022-10-31T02:07:56;6.73;;;3.33;;
60032;SDS011;45905;50.570;10.428;2022-10-31T02:10:40;4.10;;;3.47;;
60032;SDS011;45905;50.570;10.428;2022-10-31T02:13:10;23.07;;;4.00;;
60032;SDS011;45905;50.570;10.428;2022-10-31T02:15:44;5.37;;;2.57;;
60032;SDS011;45905;50.570;10.428;2022-10-31T02:18:17;8.40;;;2.60;;
60032;SDS011;45905;50.570;10.428;2022-10-31T02:20:50;9.03;;;3.03;;
60032;SDS011;45905;50.570;10.428;2022-10-31T02:30:11;7.97;;;3.70;;
60032;SDS011;45905;50.570;10.428;2022-10-31T02:39:02;7.03;;;3.17;;
60032;SDS011;45905;50.570;10.428;2022-10-31T02:41:49;10.00;;;4.00;;
60032;SDS011;45905;50.570;10.428;2022-10-31T02:44:38;7.60;;;4.40;;
60032;SDS011;45905;50.570;10.428;2022-10-31T02:47:18;4.03;;;3.40;;
60032;SDS011;45905;50.570;10.428;2022-10-31T02:50:06;6.20;;;4.17;;
60032;SDS011;45905;50.570;10.428;2022-10-31T02:52:39;8.93;;;3.90;;
60032;SDS011;45905;50.570;10.428;2022-10-31T02:55:41;10.53;;;3.80;;
60032;SDS011;45905;50.570;10.428;2022-10-31T02:58:05;9.20;;;3.67;;
60032;SDS011;45905;50.570;10.428;2022-10-31T03:00:45;7.33;;;3.50;;
60032;SDS011;45905;50.570;10.428;2022-10-31T03:07:15;4.57;;;2.60;;
60032;SDS011;45905;50.570;10.428;2022-10-31T03:15:54;6.63;;;4.03;;
60032;SDS011;45905;50.570;10.428;2022-10-31T03:18:34;22.17;;;5.00;;
60032;SDS011;45905;50.570;10.428;2022-10-31T03:21:16;7.33;;;3.80;;
60032;SDS011;45905;50.570;10.428;2022-10-31T03:23:53;5.50;;;3.70;;
60032;SDS011;45905;50.570;10.428;2022-10-31T03:26:23;9.93;;;3.80;;
60032;SDS011;45905;50.570;10.428;2022-10-31T03:28:57;5.10;;;2.60;;
60032;SDS011;45905;50.570;10.428;2022-10-31T03:31:35;6.60;;;3.60;;
60032;SDS011;45905;50.570;10.428;2022-10-31T03:34:12;8.13;;;3.47;;
60032;SDS011;45905;50.570;10.428;2022-10-31T03:36:43;3.87;;;2.33;;
60032;SDS011;45905;50.570;10.428;2022-10-31T03:39:15;4.00;;;2.80;;
60032;SDS011;45905;50.570;10.428;2022-10-31T03:41:57;7.67;;;4.90;;
60032;SDS011;45905;50.570;10.428;2022-10-31T03:44:36;3.67;;;2.67;;
60032;SDS011;45905;50.570;10.428;2022-10-31T03:47:07;3.90;;;3.07;;
60032;SDS011;45905;50.570;10.428;2022-10-31T03:49:34;5.37;;;3.33;;
60032;SDS011;45905;50.570;10.428;2022-10-31T03:52:04;5.40;;;4.03;;
60032;SDS011;45905;50.570;10.428;2022-10-31T03:55:12;4.33;;;3.23;;
60032;SDS011;45905;50.570;10.428;2022-10-31T03:58:32;7.27;;;3.53;;
60032;SDS011;45905;50.570;10.428;2022-10-31T04:01:09;6.40;;;3.07;;
60032;SDS011;45905;50.570;10.428;2022-10-31T04:03:43;5.97;;;3.50;;
60032;SDS011;45905;50.570;10.428;2022-10-31T04:06:12;11.23;;;2.60;;
60032;SDS011;45905;50.570;10.428;2022-10-31T04:09:02;6.60;;;3.30;;
60032;SDS011;45905;50.570;10.428;2022-10-31T04:11:38;5.90;;;4.00;;
60032;SDS011;45905;50.570;10.428;2022-10-31T04:14:38;6.83;;;3.40;;
60032;SDS011;45905;50.570;10.428;2022-10-31T04:17:09;5.20;;;3.00;;
60032;SDS011;45905;50.570;10.428;2022-10-31T04:19:42;9.10;;;3.53;;
60032;SDS011;45905;50.570;10.428;2022-10-31T04:22:10;6.53;;;3.60;;
60032;SDS011;45905;50.570;10.428;2022-10-31T04:24:37;3.80;;;2.80;;
60032;SDS011;45905;50.570;10.428;2022-10-31T04:27:09;3.93;;;3.50;;
60032;SDS011;45905;50.570;10.428;2022-10-31T04:29:37;8.50;;;2.73;;
60032;SDS011;45905;50.570;10.428;2022-10-31T04:32:04;5.00;;;2.60;;
60032;SDS011;45905;50.570;10.428;2022-10-31T04:34:31;4.83;;;3.03;;
60032;SDS011;45905;50.570;10.428;2022-10-31T04:36:58;6.93;;;3.20;;
60032;SDS011;45905;50.570;10.428;2022-10-31T04:39:26;5.93;;;3.27;;
60032;SDS011;45905;50.570;10.428;2022-10-31T04:42:16;4.40;;;3.50;;
60032;SDS011;45905;50.570;10.428;2022-10-31T04:44:43;13.93;;;2.97;;
60032;SDS011;45905;50.570;10.428;2022-10-31T04:47:10;5.20;;;3.43;;
60032;SDS011;45905;50.570;10.428;2022-10-31T04:49:37;6.60;;;2.40;;
60032;SDS011;45905;50.570;10.428;2022-10-31T04:52:05;6.73;;;3.50;;
60032;SDS011;45905;50.570;10.428;2022-10-31T04:54:34;4.43;;;3.60;;
60032;SDS011;45905;50.570;10.428;2022-10-31T04:57:21;5.00;;;3.50;;
60032;SDS011;45905;50.570;10.428;2022-10-31T04:59:48;9.70;;;2.97;;
60032;SDS011;45905;50.570;10.428;2022-10-31T05:02:15;15.70;;;5.17;;
60032;SDS011;45905;50.570;10.428;2022-10-31T05:04:49;2.93;;;2.50;;
60032;SDS011;45905;50.570;10.428;2022-10-31T05:07:17;6.30;;;3.17;;
60032;SDS011;45905;50.570;10.428;2022-10-31T05:09:44;8.30;;;4.00;;
60032;SDS011;45905;50.570;10.428;2022-10-31T05:12:12;6.53;;;3.27;;
60032;SDS011;45905;50.570;10.428;2022-10-31T05:15:17;7.57;;;4.10;;
60032;SDS011;45905;50.570;10.428;2022-10-31T05:18:24;2.83;;;2.10;;
60032;SDS011;45905;50.570;10.428;2022-10-31T05:21:10;5.43;;;2.33;;
60032;SDS011;45905;50.570;10.428;2022-10-31T05:23:43;3.70;;;2.90;;
60032;SDS011;45905;50.570;10.428;2022-10-31T05:26:14;2.90;;;2.70;;
60032;SDS011;45905;50.570;10.428;2022-10-31T05:28:41;4.37;;;3.17;;
60032;SDS011;45905;50.570;10.428;2022-10-31T05:31:08;5.67;;;3.77;;
60032;SDS011;45905;50.570;10.428;2022-10-31T05:33:35;3.77;;;2.43;;
60032;SDS011;45905;50.570;10.428;2022-10-31T05:36:08;4.10;;;2.60;;
60032;SDS011;45905;50.570;10.428;2022-10-31T05:38:58;7.07;;;3.17;;
60032;SDS011;45905;50.570;10.428;2022-10-31T05:41:30;4.43;;;2.60;;
60032;SDS011;45905;50.570;10.428;2022-10-31T05:44:08;2.73;;;2.53;;
60032;SDS011;45905;50.570;10.428;2022-10-31T05:46:49;4.90;;;2.73;;
60032;SDS011;45905;50.570;10.428;2022-10-31T05:49:36;5.57;;;2.47;;
60032;SDS011;45905;50.570;10.428;2022-10-31T05:52:22;3.53;;;3.23;;
60032;SDS011;45905;50.570;10.428;2022-10-31T05:54:56;3.60;;;3.03;;
60032;SDS011;45905;50.570;10.428;2022-10-31T05:57:23;6.70;;;3.57;;
60032;SDS011;45905;50.570;10.428;2022-10-31T05:59:51;4.17;;;2.33;;
60032;SDS011;45905;50.570;10.428;2022-10-31T06:02:22;5.10;;;2.60;;
60032;SDS011;45905;50.570;10.428;2022-10-31T06:05:08;5.00;;;2.97;;
60032;SDS011;45905;50.570;10.428;2022-10-31T06:07:35;5.97;;;3.00;;
60032;SDS011;45905;50.570;10.428;2022-10-31T06:10:03;3.40;;;2.33;;
60032;SDS011;45905;50.570;10.428;2022-10-31T06:12:33;3.80;;;3.00;;
60032;SDS011;45905;50.570;10.428;2022-10-31T06:15:15;2.90;;;2.13;;
60032;SDS011;45905;50.570;10.428;2022-10-31T06:18:02;3.77;;;2.77;;
60032;SDS011;45905;50.570;10.428;2022-10-31T06:20:35;6.23;;;2.77;;
60032;SDS011;45905;50.570;10.428;2022-10-31T06:23:04;6.20;;;3.00;;
60032;SDS011;45905;50.570;10.428;2022-10-31T06:25:32;4.37;;;2.97;;
60032;SDS011;45905;50.570;10.428;2022-10-31T06:28:00;4.97;;;3.43;;
60032;SDS011;45905;50.570;10.428;2022-10-31T06:30:36;4.40;;;3.13;;
60032;SDS011;45905;50.570;10.428;2022-10-31T06:33:04;4.10;;;3.10;;
60032;SDS011;45905;50.570;10.428;2022-10-31T06:35:34;3.83;;;2.80;;
60032;SDS011;45905;50.570;10.428;2022-10-31T06:38:01;4.20;;;2.93;;
60032;SDS011;45905;50.570;10.428;2022-10-31T06:40:36;8.30;;;2.13;;
60032;SDS011;45905;50.570;10.428;2022-10-31T06:43:23;4.37;;;3.33;;
60032;SDS011;45905;50.570;10.428;2022-10-31T06:46:06;5.17;;;2.70;;
60032;SDS011;45905;50.570;10.428;2022-10-31T06:48:46;3.20;;;2.80;;
60032;SDS011;45905;50.570;10.428;2022-10-31T06:51:33;3.00;;;2.03;;
60032;SDS011;45905;50.570;10.428;2022-10-31T06:54:00;6.90;;;2.80;;
60032;SDS011;45905;50.570;10.428;2022-10-31T06:56:27;2.90;;;2.30;;
60032;SDS011;45905;50.570;10.428;2022-10-31T06:58:56;2.67;;;1.90;;
60032;SDS011;45905;50.570;10.428;2022-10-31T07:01:52;5.33;;;2.40;;
60032;SDS011;45905;50.570;10.428;2022-10-31T07:04:20;3.80;;;2.40;;
60032;SDS011;45905;50.570;10.428;2022-10-31T07:06:47;4.43;;;3.40;;
60032;SDS011;45905;50.570;10.428;2022-10-31T07:09:18;1.90;;;1.57;;
60032;SDS011;45905;50.570;10.428;2022-10-31T07:11:46;5.17;;;2.60;;
60032;SDS011;45905;50.570;10.428;2022-10-31T07:14:14;3.73;;;2.97;;
60032;SDS011;45905;50.570;10.428;2022-10-31T07:16:41;4.30;;;2.50;;
60032;SDS011;45905;50.570;10.428;2022-10-31T07:19:10;4.70;;;2.57;;
60032;SDS011;45905;50.570;10.428;2022-10-31T07:21:37;2.67;;;2.47;;
60032;SDS011;45905;50.570;10.428;2022-10-31T07:24:05;15.80;;;2.70;;
60032;SDS011;45905;50.570;10.428;2022-10-31T07:26:41;2.47;;;2.00;;
60032;SDS011;45905;50.570;10.428;2022-10-31T07:29:09;3.03;;;2.73;;
60032;SDS011;45905;50.570;10.428;2022-10-31T07:31:37;2.17;;;1.97;;
60032;SDS011;45905;50.570;10.428;2022-10-31T07:34:11;5.30;;;2.60;;
60032;SDS011;45905;50.570;10.428;2022-10-31T07:37:01;3.47;;;2.50;;
60032;SDS011;45905;50.570;10.428;2022-10-31T07:39:29;3.30;;;2.27;;
60032;SDS011;45905;50.570;10.428;2022-10-31T07:41:57;4.87;;;2.40;;
60032;SDS011;45905;50.570;10.428;2022-10-31T07:44:25;6.03;;;3.53;;
60032;SDS011;45905;50.570;10.428;2022-10-31T07:47:21;3.43;;;2.17;;
60032;SDS011;45905;50.570;10.428;2022-10-31T07:50:08;3.87;;;2.57;;
60032;SDS011;45905;50.570;10.428;2022-10-31T07:53:10;4.10;;;2.67;;
60032;SDS011;45905;50.570;10.428;2022-10-31T07:55:51;3.90;;;2.30;;
60032;SDS011;45905;50.570;10.428;2022-10-31T07:58:18;5.00;;;2.70;;
60032;SDS011;45905;50.570;10.428;2022-10-31T08:00:45;3.33;;;1.90;;
60032;SDS011;45905;50.570;10.428;2022-10-31T08:03:21;4.17;;;2.20;;
60032;SDS011;45905;50.570;10.428;2022-10-31T08:06:06;3.77;;;2.27;;
60032;SDS011;45905;50.570;10.428;2022-10-31T08:08:52;5.13;;;2.23;;
60032;SDS011;45905;50.570;10.428;2022-10-31T08:11:19;3.30;;;2.47;;
60032;SDS011;45905;50.570;10.428;2022-10-31T08:13:46;3.70;;;2.90;;
60032;SDS011;45905;50.570;10.428;2022-10-31T08:16:14;5.53;;;2.77;;
60032;SDS011;45905;50.570;10.428;2022-10-31T08:18:50;9.10;;;3.10;;
60032;SDS011;45905;50.570;10.428;2022-10-31T08:21:18;4.70;;;3.10;;
60032;SDS011;45905;50.570;10.428;2022-10-31T08:23:46;4.80;;;3.27;;
60032;SDS011;45905;50.570;10.428;2022-10-31T08:26:13;3.80;;;2.87;;
60032;SDS011;45905;50.570;10.428;2022-10-31T08:28:42;3.10;;;2.60;;
60032;SDS011;45905;50.570;10.428;2022-10-31T08:31:09;4.73;;;3.00;;
60032;SDS011;45905;50.570;10.428;2022-10-31T08:33:39;4.33;;;3.07;;
60032;SDS011;45905;50.570;10.428;2022-10-31T08:36:18;3.13;;;2.70;;
60032;SDS011;45905;50.570;10.428;2022-10-31T08:38:58;3.40;;;2.60;;
60032;SDS011;45905;50.570;10.428;2022-10-31T08:41:28;4.90;;;3.47;;
60032;SDS011;45905;50.570;10.428;2022-10-31T08:43:57;5.40;;;4.00;;
60032;SDS011;45905;50.570;10.428;2022-10-31T08:46:24;5.20;;;3.63;;
60032;SDS011;45905;50.570;10.428;2022-10-31T08:48:52;4.10;;;3.70;;
60032;SDS011;45905;50.570;10.428;2022-10-31T08:51:19;5.20;;;3.00;;
60032;SDS011;45905;50.570;10.428;2022-10-31T08:53:50;5.97;;;3.50;;
60032;SDS011;45905;50.570;10.428;2022-10-31T08:56:53;3.23;;;2.77;;
60032;SDS011;45905;50.570;10.428;2022-10-31T08:59:36;10.63;;;3.97;;
60032;SDS011;45905;50.570;10.428;2022-10-31T09:02:22;6.40;;;3.00;;
60032;SDS011;45905;50.570;10.428;2022-10-31T09:04:52;2.70;;;2.10;;
60032;SDS011;45905;50.570;10.428;2022-10-31T09:07:19;4.67;;;2.97;;
60032;SDS011;45905;50.570;10.428;2022-10-31T09:09:47;5.53;;;3.07;;
60032;SDS011;45905;50.570;10.428;2022-10-31T09:12:15;6.00;;;2.67;;
60032;SDS011;45905;50.570;10.428;2022-10-31T09:15:01;5.23;;;3.60;;
60032;SDS011;45905;50.570;10.428;2022-10-31T09:17:51;3.60;;;3.00;;
60032;SDS011;45905;50.570;10.428;2022-10-31T09:20:32;5.00;;;3.60;;
60032;SDS011;45905;50.570;10.428;2022-10-31T09:23:06;5.33;;;3.20;;
60032;SDS011;45905;50.570;10.428;2022-10-31T09:25:40;5.40;;;3.13;;
60032;SDS011;45905;50.570;10.428;2022-10-31T09:28:33;6.17;;;3.63;;
60032;SDS011;45905;50.570;10.428;2022-10-31T09:31:05;3.40;;;2.63;;
60032;SDS011;45905;50.570;10.428;2022-10-31T09:33:48;9.50;;;3.97;;
60032;SDS011;45905;50.570;10.428;2022-10-31T09:36:41;5.80;;;3.47;;
60032;SDS011;45905;50.570;10.428;2022-10-31T09:39:17;6.30;;;3.80;;
60032;SDS011;45905;50.570;10.428;2022-10-31T09:42:06;4.53;;;4.03;;
60032;SDS011;45905;50.570;10.428;2022-10-31T09:45:09;8.10;;;3.63;;
60032;SDS011;45905;50.570;10.428;2022-10-31T09:48:36;4.13;;;3.70;;
60032;SDS011;45905;50.570;10.428;2022-10-31T09:51:30;4.90;;;3.60;;
60032;SDS011;45905;50.570;10.428;2022-10-31T09:54:14;6.17;;;4.50;;
60032;SDS011;45905;50.570;10.428;2022-10-31T09:56:52;4.97;;;4.00;;
60032;SDS011;45905;50.570;10.428;2022-10-31T09:59:34;8.70;;;5.47;;
60032;SDS011;45905;50.570;10.428;2022-10-31T10:02:23;5.70;;;4.60;;
60032;SDS011;45905;50.570;10.428;2022-10-31T10:05:09;11.80;;;4.67;;
60032;SDS011;45905;50.570;10.428;2022-10-31T10:07:59;4.60;;;4.20;;
60032;SDS011;45905;50.570;10.428;2022-10-31T10:11:22;6.73;;;4.30;;
60032;SDS011;45905;50.570;10.428;2022-10-31T10:17:22;7.67;;;4.90;;
60032;SDS011;45905;50.570;10.428;2022-10-31T10:20:09;6.83;;;4.60;;
60032;SDS011;45905;50.570;10.428;2022-10-31T10:22:54;6.47;;;4.60;;
60032;SDS011;45905;50.570;10.428;2022-10-31T10:25:39;10.10;;;6.30;;
60032;SDS011;45905;50.570;10.428;2022-10-31T10:28:26;7.27;;;4.90;;
60032;SDS011;45905;50.570;10.428;2022-10-31T10:31:10;8.60;;;5.53;;
60032;SDS011;45905;50.570;10.428;2022-10-31T10:36:45;7.57;;;4.87;;
60032;SDS011;45905;50.570;10.428;2022-10-31T10:39:33;10.87;;;3.80;;
60032;SDS011;45905;50.570;10.428;2022-10-31T10:42:13;13.37;;;4.00;;
60032;SDS011;45905;50.570;10.428;2022-10-31T10:45:21;6.17;;;4.43;;
60032;SDS011;45905;50.570;10.428;2022-10-31T10:51:18;9.03;;;4.80;;
60032;SDS011;45905;50.570;10.428;2022-10-31T10:54:21;7.23;;;5.17;;
60032;SDS011;45905;50.570;10.428;2022-10-31T10:57:17;11.67;;;5.10;;
60032;SDS011;45905;50.570;10.428;2022-10-31T11:00:19;9.50;;;4.37;;
60032;SDS011;45905;50.570;10.428;2022-10-31T11:02:49;8.00;;;4.00;;
60032;SDS011;45905;50.570;10.428;2022-10-31T11:05:23;10.40;;;5.00;;
60032;SDS011;45905;50.570;10.428;2022-10-31T11:08:03;7.10;;;4.83;;
60032;SDS011;45905;50.570;10.428;2022-10-31T11:10:32;9.83;;;5.90;;
60032;SDS011;45905;50.570;10.428;2022-10-31T11:13:19;4.97;;;4.23;;
60032;SDS011;45905;50.570;10.428;2022-10-31T11:15:51;9.53;;;4.20;;
60032;SDS011;45905;50.570;10.428;2022-10-31T11:18:32;8.20;;;6.00;;
60032;SDS011;45905;50.570;10.428;2022-10-31T11:21:04;10.80;;;6.00;;
60032;SDS011;45905;50.570;10.428;2022-10-31T11:23:32;10.47;;;5.40;;
60032;SDS011;45905;50.570;10.428;2022-10-31T11:26:00;11.73;;;5.30;;
60032;SDS011;45905;50.570;10.428;2022-10-31T11:28:32;7.03;;;4.87;;
60032;SDS011;45905;50.570;10.428;2022-10-31T11:31:12;7.00;;;5.50;;
60032;SDS011;45905;50.570;10.428;2022-10-31T11:38:54;9.63;;;6.33;;
60032;SDS011;45905;50.570;10.428;2022-10-31T11:41:28;9.30;;;5.80;;
60032;SDS011;45905;50.570;10.428;2022-10-31T11:44:13;11.13;;;5.57;;
60032;SDS011;45905;50.570;10.428;2022-10-31T11:46:50;15.60;;;5.17;;
60032;SDS011;45905;50.570;10.428;2022-10-31T11:52:13;9.27;;;4.23;;
60032;SDS011;45905;50.570;10.428;2022-10-31T11:54:57;5.93;;;4.50;;
60032;SDS011;45905;50.570;10.428;2022-10-31T11:57:45;9.00;;;5.10;;
60032;SDS011;45905;50.570;10.428;2022-10-31T12:00:22;10.17;;;5.77;;
60032;SDS011;45905;50.570;10.428;2022-10-31T12:03:14;15.10;;;6.47;;
60032;SDS011;45905;50.570;10.428;2022-10-31T12:06:12;16.50;;;6.80;;
60032;SDS011;45905;50.570;10.428;2022-10-31T12:09:18;27.60;;;12.37;;
60032;SDS011;45905;50.570;10.428;2022-10-31T12:11:57;9.53;;;5.83;;
60032;SDS011;45905;50.570;10.428;2022-10-31T12:33:20;8.63;;;4.57;;
60032;SDS011;45905;50.570;10.428;2022-10-31T12:36:00;9.10;;;5.07;;
60032;SDS011;45905;50.570;10.428;2022-10-31T12:56:15;11.80;;;4.07;;
60032;SDS011;45905;50.570;10.428;2022-10-31T12:59:14;25.97;;;4.20;;
60032;SDS011;45905;50.570;10.428;2022-10-31T13:02:04;5.73;;;4.10;;
60032;SDS011;45905;50.570;10.428;2022-10-31T13:07:27;11.90;;;5.37;;
60032;SDS011;45905;50.570;10.428;2022-10-31T13:10:13;7.87;;;4.43;;
60032;SDS011;45905;50.570;10.428;2022-10-31T13:12:48;9.20;;;3.90;;
60032;SDS011;45905;50.570;10.428;2022-10-31T13:15:22;5.27;;;3.90;;
60032;SDS011;45905;50.570;10.428;2022-10-31T13:18:17;9.33;;;4.67;;
60032;SDS011;45905;50.570;10.428;2022-10-31T13:20:55;5.80;;;3.80;;
60032;SDS011;45905;50.570;10.428;2022-10-31T13:23:34;9.00;;;4.10;;
60032;SDS011;45905;50.570;10.428;2022-10-31T13:31:35;7.60;;;4.63;;
60032;SDS011;45905;50.570;10.428;2022-10-31T13:34:23;11.83;;;5.43;;
60032;SDS011;45905;50.570;10.428;2022-10-31T13:43:33;9.67;;;3.47;;
60032;SDS011;45905;50.570;10.428;2022-10-31T13:46:25;10.93;;;4.37;;
60032;SDS011;45905;50.570;10.428;2022-10-31T13:49:04;7.20;;;3.50;;
60032;SDS011;45905;50.570;10.428;2022-10-31T13:54:44;9.23;;;4.47;;
60032;SDS011;45905;50.570;10.428;2022-10-31T13:57:27;8.40;;;4.60;;
60032;SDS011;45905;50.570;10.428;2022-10-31T14:02:49;13.20;;;5.57;;
60032;SDS011;45905;50.570;10.428;2022-10-31T14:07:56;13.57;;;6.13;;
60032;SDS011;45905;50.570;10.428;2022-10-31T14:10:29;19.90;;;6.23;;
60032;SDS011;45905;50.570;10.428;2022-10-31T14:13:16;8.77;;;5.47;;
60032;SDS011;45905;50.570;10.428;2022-10-31T14:16:00;8.83;;;5.10;;
60032;SDS011;45905;50.570;10.428;2022-10-31T14:18:43;13.87;;;5.33;;
60032;SDS011;45905;50.570;10.428;2022-10-31T14:23:50;7.03;;;4.67;;
60032;SDS011;45905;50.570;10.428;2022-10-31T14:29:20;8.97;;;6.00;;
60032;SDS011;45905;50.570;10.428;2022-10-31T14:31:44;7.43;;;5.50;;
60032;SDS011;45905;50.570;10.428;2022-10-31T14:51:35;10.70;;;5.77;;
60032;SDS011;45905;50.570;10.428;2022-10-31T14:54:30;10.27;;;5.70;;
60032;SDS011;45905;50.570;10.428;2022-10-31T14:57:04;8.40;;;4.70;;
60032;SDS011;45905;50.570;10.428;2022-10-31T14:59:41;12.83;;;5.30;;
60032;SDS011;45905;50.570;10.428;2022-10-31T15:02:17;12.90;;;4.97;;
60032;SDS011;45905;50.570;10.428;2022-10-31T15:05:11;17.40;;;5.40;;
60032;SDS011;45905;50.570;10.428;2022-10-31T15:07:50;6.73;;;4.83;;
60032;SDS011;45905;50.570;10.428;2022-10-31T15:10:24;15.40;;;5.90;;
60032;SDS011;45905;50.570;10.428;2022-10-31T15:15:58;10.00;;;5.00;;
60032;SDS011;45905;50.570;10.428;2022-10-31T15:18:26;15.13;;;4.53;;
60032;SDS011;45905;50.570;10.428;2022-10-31T15:20:55;8.87;;;4.20;;
60032;SDS011;45905;50.570;10.428;2022-10-31T15:23:27;9.30;;;3.80;;
60032;SDS011;45905;50.570;10.428;2022-10-31T15:26:00;4.00;;;3.30;;
60032;SDS011;45905;50.570;10.428;2022-10-31T15:28:31;6.87;;;3.77;;
60032;SDS011;45905;50.570;10.428;2022-10-31T15:30:59;3.60;;;2.10;;
60032;SDS011;45905;50.570;10.428;2022-10-31T15:33:30;4.77;;;3.10;;
60032;SDS011;45905;50.570;10.428;2022-10-31T15:36:18;8.50;;;4.37;;
60032;SDS011;45905;50.570;10.428;2022-10-31T15:38:55;9.17;;;4.70;;
60032;SDS011;45905;50.570;10.428;2022-10-31T15:44:24;10.00;;;4.40;;
60032;SDS011;45905;50.570;10.428;2022-10-31T15:46:59;12.17;;;5.70;;
60032;SDS011;45905;50.570;10.428;2022-10-31T15:49:38;9.87;;;5.13;;
60032;SDS011;45905;50.570;10.428;2022-10-31T15:52:17;10.00;;;5.00;;
60032;SDS011;45905;50.570;10.428;2022-10-31T15:55:02;10.43;;;4.70;;
60032;SDS011;45905;50.570;10.428;2022-10-31T15:57:48;11.97;;;5.00;;
60032;SDS011;45905;50.570;10.428;2022-10-31T16:00:29;12.70;;;5.67;;
60032;SDS011;45905;50.570;10.428;2022-10-31T16:08:30;9.63;;;5.67;;
60032;SDS011;45905;50.570;10.428;2022-10-31T16:13:51;19.13;;;5.80;;
60032;SDS011;45905;50.570;10.428;2022-10-31T16:16:22;8.63;;;4.03;;
60032;SDS011;45905;50.570;10.428;2022-10-31T16:19:05;8.53;;;3.77;;
60032;SDS011;45905;50.570;10.428;2022-10-31T16:21:45;7.67;;;4.47;;
60032;SDS011;45905;50.570;10.428;2022-10-31T16:24:26;7.97;;;4.70;;
60032;SDS011;45905;50.570;10.428;2022-10-31T16:27:20;9.03;;;5.30;;
60032;SDS011;45905;50.570;10.428;2022-10-31T16:29:59;10.23;;;4.23;;
60032;SDS011;45905;50.570;10.428;2022-10-31T16:32:35;9.60;;;3.67;;
60032;SDS011;45905;50.570;10.428;2022-10-31T16:35:26;4.47;;;2.67;;
60032;SDS011;45905;50.570;10.428;2022-10-31T16:37:59;6.13;;;2.97;;
60032;SDS011;45905;50.570;10.428;2022-10-31T16:40:26;2.83;;;2.20;;
60032;SDS011;45905;50.570;10.428;2022-10-31T16:42:53;21.20;;;10.87;;
60032;SDS011;45905;50.570;10.428;2022-10-31T16:45:25;9.97;;;6.17;;
60032;SDS011;45905;50.570;10.428;2022-10-31T16:48:04;12.87;;;6.83;;
60032;SDS011;45905;50.570;10.428;2022-10-31T16:50:37;8.80;;;3.93;;
60032;SDS011;45905;50.570;10.428;2022-10-31T16:53:04;17.70;;;6.40;;
60032;SDS011;45905;50.570;10.428;2022-10-31T16:55:50;14.70;;;5.63;;
60032;SDS011;45905;50.570;10.428;2022-10-31T16:58:24;9.00;;;4.40;;
60032;SDS011;45905;50.570;10.428;2022-10-31T17:00:56;17.73;;;7.77;;
60032;SDS011;45905;50.570;10.428;2022-10-31T17:03:24;17.77;;;7.83;;
60032;SDS011;45905;50.570;10.428;2022-10-31T17:05:51;22.20;;;7.53;;
60032;SDS011;45905;50.570;10.428;2022-10-31T17:08:21;21.03;;;7.50;;
60032;SDS011;45905;50.570;10.428;2022-10-31T17:10:50;16.43;;;6.10;;
60032;SDS011;45905;50.570;10.428;2022-10-31T17:13:20;16.43;;;7.07;;
60032;SDS011;45905;50.570;10.428;2022-10-31T17:15:52;23.20;;;10.13;;
60032;SDS011;45905;50.570;10.428;2022-10-31T17:18:22;19.13;;;9.53;;
60032;SDS011;45905;50.570;10.428;2022-10-31T17:20:57;15.30;;;6.70;;
60032;SDS011;45905;50.570;10.428;2022-10-31T17:23:27;20.13;;;10.27;;
60032;SDS011;45905;50.570;10.428;2022-10-31T17:25:54;14.13;;;7.53;;
60032;SDS011;45905;50.570;10.428;2022-10-31T17:28:22;16.80;;;8.43;;
60032;SDS011;45905;50.570;10.428;2022-10-31T17:30:52;10.53;;;5.87;;
60032;SDS011;45905;50.570;10.428;2022-10-31T17:33:23;10.37;;;6.60;;
60032;SDS011;45905;50.570;10.428;2022-10-31T17:35:51;22.10;;;6.37;;
60032;SDS011;45905;50.570;10.428;2022-10-31T17:38:18;9.23;;;5.70;;
60032;SDS011;45905;50.570;10.428;2022-10-31T17:40:45;13.30;;;7.10;;
60032;SDS011;45905;50.570;10.428;2022-10-31T17:43:13;18.90;;;7.97;;
60032;SDS011;45905;50.570;10.428;2022-10-31T17:45:40;20.67;;;8.13;;
60032;SDS011;45905;50.570;10.428;2022-10-31T17:48:11;16.43;;;7.80;;
60032;SDS011;45905;50.570;10.428;2022-10-31T17:50:38;16.00;;;9.37;;
60032;SDS011;45905;50.570;10.428;2022-10-31T17:53:05;11.13;;;5.90;;